sensor_id;sensor_type;location;lat;lon;timestamp;pressure;altitude;pressure_sealevel;temperature;humidity
12247;BME280;6186;52.022;4.692;2022-12-07T00:01:40;102024.59;;;5.98;100.00
12247;BME280;6186;52.022;4.692;2022-12-07T00:04:07;102021.16;;;6.03;100.00
12247;BME280;6186;52.022;4.692;2022-12-07T00:06:41;102017.75;;;6.09;100.00
12247;BME280;6186;52.022;4.692;2022-12-07T00:09:10;102021.28;;;6.12;100.00
12247;BME280;6186;52.022;4.692;2022-12-07T00:11:35;102016.03;;;6.12;100.00
12247;BME280;6186;52.022;4.692;2022-12-07T00:14:05;102024.84;;;6.19;100.00
12247;BME280;6186;52.022;4.692;2022-12-07T00:16:32;102014.34;;;6.17;100.00
12247;BME280;6186;52.022;4.692;2022-12-07T00:18:58;102012.63;;;6.19;100.00
12247;BME280;6186;52.022;4.692;2022-12-07T00:21:26;102013.59;;;6.24;100.00
12247;BME280;6186;52.022;4.692;2022-12-07T00:23:53;102010.06;;;6.22;100.00
12247;BME280;6186;52.022;4.692;2022-12-07T00:26:30;102009.19;;;6.23;100.00
12247;BME280;6186;52.022;4.692;2022-12-07T00:28:58;102003.03;;;6.18;100.00
12247;BME280;6186;52.022;4.692;2022-12-07T00:31:26;101995.13;;;6.12;100.00
12247;BME280;6186;52.022;4.692;2022-12-07T00:33:52;102002.16;;;6.16;100.00
12247;BME280;6186;52.022;4.692;2022-12-07T00:36:21;101996.03;;;6.17;100.00
12247;BME280;6186;52.022;4.692;2022-12-07T00:38:47;101996.03;;;6.16;100.00
12247;BME280;6186;52.022;4.692;2022-12-07T00:41:17;102001.25;;;6.13;100.00
12247;BME280;6186;52.022;4.692;2022-12-07T00:43:45;102000.34;;;6.11;100.00
12247;BME280;6186;52.022;4.692;2022-12-07T00:46:11;102001.16;;;6.07;100.00
12247;BME280;6186;52.022;4.692;2022-12-07T00:48:37;101998.50;;;6.04;100.00
12247;BME280;6186;52.022;4.692;2022-12-07T00:51:02;101993.25;;;6.01;100.00
12247;BME280;6186;52.022;4.692;2022-12-07T00:53:28;101989.69;;;5.94;100.00
12247;BME280;6186;52.022;4.692;2022-12-07T00:55:54;101990.63;;;5.98;100.00
12247;BME280;6186;52.022;4.692;2022-12-07T00:58:20;101992.34;;;5.99;100.00
12247;BME280;6186;52.022;4.692;2022-12-07T01:00:46;101987.13;;;5.99;100.00
12247;BME280;6186;52.022;4.692;2022-12-07T01:03:12;101989.75;;;5.99;100.00
12247;BME280;6186;52.022;4.692;2022-12-07T01:05:38;102000.19;;;6.00;100.00
12247;BME280;6186;52.022;4.692;2022-12-07T01:08:05;102011.56;;;6.04;100.00
12247;BME280;6186;52.022;4.692;2022-12-07T01:10:30;102011.63;;;6.08;100.00
12247;BME280;6186;52.022;4.692;2022-12-07T01:12:57;102012.56;;;6.13;100.00
12247;BME280;6186;52.022;4.692;2022-12-07T01:15:23;102003.03;;;6.18;100.00
12247;BME280;6186;52.022;4.692;2022-12-07T01:17:48;102004.84;;;6.22;100.00
12247;BME280;6186;52.022;4.692;2022-12-07T01:20:14;102006.59;;;6.25;100.00
12247;BME280;6186;52.022;4.692;2022-12-07T01:22:41;102007.47;;;6.25;100.00
12247;BME280;6186;52.022;4.692;2022-12-07T01:25:08;102012.69;;;6.25;100.00
12247;BME280;6186;52.022;4.692;2022-12-07T01:27:34;102013.59;;;6.24;100.00
12247;BME280;6186;52.022;4.692;2022-12-07T01:30:01;102003.94;;;6.22;100.00
12247;BME280;6186;52.022;4.692;2022-12-07T01:32:27;102000.44;;;6.20;100.00
12247;BME280;6186;52.022;4.692;2022-12-07T01:34:52;102008.28;;;6.20;100.00
12247;BME280;6186;52.022;4.692;2022-12-07T01:37:17;102003.94;;;6.19;100.00
12247;BME280;6186;52.022;4.692;2022-12-07T01:39:43;102008.28;;;6.21;100.00
12247;BME280;6186;52.022;4.692;2022-12-07T01:42:11;102007.47;;;6.22;100.00
12247;BME280;6186;52.022;4.692;2022-12-07T01:47:41;101999.66;;;6.28;100.00
12247;BME280;6186;52.022;4.692;2022-12-07T01:50:08;101995.22;;;6.23;100.00
12247;BME280;6186;52.022;4.692;2022-12-07T01:52:36;102004.84;;;6.24;100.00
12247;BME280;6186;52.022;4.692;2022-12-07T01:55:09;101996.97;;;6.21;100.00
12247;BME280;6186;52.022;4.692;2022-12-07T01:57:42;101997.81;;;6.17;100.00
12247;BME280;6186;52.022;4.692;2022-12-07T02:00:09;101991.63;;;6.12;100.00
12247;BME280;6186;52.022;4.692;2022-12-07T02:02:41;101996.00;;;6.13;100.00
12247;BME280;6186;52.022;4.692;2022-12-07T02:05:08;101995.97;;;6.10;100.00
12247;BME280;6186;52.022;4.692;2022-12-07T02:07:36;101997.72;;;6.11;100.00
12247;BME280;6186;52.022;4.692;2022-12-07T02:10:19;101994.25;;;6.12;100.00
12247;BME280;6186;52.022;4.692;2022-12-07T02:12:49;101989.00;;;6.12;100.00
12247;BME280;6186;52.022;4.692;2022-12-07T02:15:17;101985.50;;;6.08;100.00
12247;BME280;6186;52.022;4.692;2022-12-07T02:18:01;101988.94;;;6.06;100.00
12247;BME280;6186;52.022;4.692;2022-12-07T02:20:40;101984.56;;;6.02;100.00
12247;BME280;6186;52.022;4.692;2022-12-07T02:23:29;101982.78;;;6.01;100.00
12247;BME280;6186;52.022;4.692;2022-12-07T02:31:23;101981.00;;;5.97;100.00
12247;BME280;6186;52.022;4.692;2022-12-07T02:34:09;101987.94;;;5.96;100.00
12247;BME280;6186;52.022;4.692;2022-12-07T02:36:43;101975.78;;;5.97;100.00
12247;BME280;6186;52.022;4.692;2022-12-07T02:39:18;101974.06;;;5.99;100.00
12247;BME280;6186;52.022;4.692;2022-12-07T02:41:51;101963.59;;;5.96;100.00
12247;BME280;6186;52.022;4.692;2022-12-07T02:44:23;101969.72;;;6.01;100.00
12247;BME280;6186;52.022;4.692;2022-12-07T02:46:54;101968.00;;;6.00;100.00
12247;BME280;6186;52.022;4.692;2022-12-07T02:49:22;101970.59;;;6.00;100.00
12247;BME280;6186;52.022;4.692;2022-12-07T02:51:48;101973.25;;;6.04;100.00
12247;BME280;6186;52.022;4.692;2022-12-07T02:54:16;101981.97;;;6.05;100.00
12247;BME280;6186;52.022;4.692;2022-12-07T03:11:16;101969.81;;;6.07;100.00
12247;BME280;6186;52.022;4.692;2022-12-07T03:16:15;101969.75;;;6.04;100.00
12247;BME280;6186;52.022;4.692;2022-12-07T03:19:13;101979.34;;;6.02;100.00
12247;BME280;6186;52.022;4.692;2022-12-07T03:21:44;101974.97;;;6.01;100.00
12247;BME280;6186;52.022;4.692;2022-12-07T03:24:15;101970.56;;;5.97;100.00
12247;BME280;6186;52.022;4.692;2022-12-07T03:26:47;101967.94;;;5.97;100.00
12247;BME280;6186;52.022;4.692;2022-12-07T03:29:27;101967.91;;;5.94;100.00
12247;BME280;6186;52.022;4.692;2022-12-07T03:32:08;101980.03;;;5.89;100.00
12247;BME280;6186;52.022;4.692;2022-12-07T03:34:43;101983.38;;;5.79;100.00
12247;BME280;6186;52.022;4.692;2022-12-07T03:37:34;101984.25;;;5.79;100.00
12247;BME280;6186;52.022;4.692;2022-12-07T03:40:26;101974.66;;;5.81;100.00
12247;BME280;6186;52.022;4.692;2022-12-07T03:42:55;101961.63;;;5.81;100.00
12247;BME280;6186;52.022;4.692;2022-12-07T03:45:26;101925.66;;;5.60;100.00
12247;BME280;6186;52.022;4.692;2022-12-07T03:50:50;101954.78;;;5.89;100.00
12247;BME280;6186;52.022;4.692;2022-12-07T03:53:34;101953.06;;;5.93;100.00
12247;BME280;6186;52.022;4.692;2022-12-07T03:56:02;101938.22;;;5.89;100.00
12247;BME280;6186;52.022;4.692;2022-12-07T03:58:29;101946.13;;;5.95;100.00
12247;BME280;6186;52.022;4.692;2022-12-07T04:00:55;101949.63;;;5.94;100.00
12247;BME280;6186;52.022;4.692;2022-12-07T04:03:20;101944.31;;;5.88;100.00
12247;BME280;6186;52.022;4.692;2022-12-07T04:05:46;101948.72;;;5.93;100.00
12247;BME280;6186;52.022;4.692;2022-12-07T04:08:12;101939.97;;;5.87;100.00
12247;BME280;6186;52.022;4.692;2022-12-07T04:10:37;101937.34;;;5.87;100.00
12247;BME280;6186;52.022;4.692;2022-12-07T04:13:03;101945.22;;;5.91;100.00
12247;BME280;6186;52.022;4.692;2022-12-07T04:15:28;101949.56;;;5.89;100.00
12247;BME280;6186;52.022;4.692;2022-12-07T04:17:53;101946.03;;;5.86;100.00
12247;BME280;6186;52.022;4.692;2022-12-07T04:20:20;101927.56;;;5.73;100.00
12247;BME280;6186;52.022;4.692;2022-12-07T04:22:46;101950.28;;;5.79;100.00
12247;BME280;6186;52.022;4.692;2022-12-07T04:25:11;101940.66;;;5.75;100.00
12247;BME280;6186;52.022;4.692;2022-12-07T04:27:36;101945.75;;;5.66;100.00
12247;BME280;6186;52.022;4.692;2022-12-07T04:30:02;101945.72;;;5.63;100.00
12247;BME280;6186;52.022;4.692;2022-12-07T04:32:28;101946.53;;;5.57;100.00
12247;BME280;6186;52.022;4.692;2022-12-07T04:34:53;101935.97;;;5.50;100.00
12247;BME280;6186;52.022;4.692;2022-12-07T04:37:18;101943.88;;;5.54;100.00
12247;BME280;6186;52.022;4.692;2022-12-07T04:39:44;101954.28;;;5.53;100.00
12247;BME280;6186;52.022;4.692;2022-12-07T04:42:12;101962.13;;;5.51;100.00
12247;BME280;6186;52.022;4.692;2022-12-07T04:44:40;101964.72;;;5.50;100.00
12247;BME280;6186;52.022;4.692;2022-12-07T04:47:05;101958.59;;;5.49;100.00
12247;BME280;6186;52.022;4.692;2022-12-07T04:49:30;101956.88;;;5.51;100.00
12247;BME280;6186;52.022;4.692;2022-12-07T04:51:56;101952.56;;;5.55;100.00
12247;BME280;6186;52.022;4.692;2022-12-07T04:54:21;101936.09;;;5.57;100.00
12247;BME280;6186;52.022;4.692;2022-12-07T04:56:47;101931.78;;;5.61;100.00
12247;BME280;6186;52.022;4.692;2022-12-07T04:59:13;101934.41;;;5.64;100.00
12247;BME280;6186;52.022;4.692;2022-12-07T05:01:40;101930.97;;;5.68;100.00
12247;BME280;6186;52.022;4.692;2022-12-07T05:04:05;101921.44;;;5.71;100.00
12247;BME280;6186;52.022;4.692;2022-12-07T05:06:31;101917.16;;;5.75;100.00
12247;BME280;6186;52.022;4.692;2022-12-07T05:08:56;101918.06;;;5.79;100.00
12247;BME280;6186;52.022;4.692;2022-12-07T05:11:22;101911.97;;;5.81;100.00
12247;BME280;6186;52.022;4.692;2022-12-07T05:14:27;101918.19;;;5.85;100.00
12247;BME280;6186;52.022;4.692;2022-12-07T05:16:53;101923.41;;;5.86;100.00
12247;BME280;6186;52.022;4.692;2022-12-07T05:19:19;101907.63;;;5.82;100.00
12247;BME280;6186;52.022;4.692;2022-12-07T05:21:44;101912.03;;;5.83;100.00
12247;BME280;6186;52.022;4.692;2022-12-07T05:24:11;101914.59;;;5.81;100.00
12247;BME280;6186;52.022;4.692;2022-12-07T05:26:37;101920.69;;;5.80;100.00
12247;BME280;6186;52.022;4.692;2022-12-07T05:29:04;101913.69;;;5.78;100.00
12247;BME280;6186;52.022;4.692;2022-12-07T05:31:29;101920.66;;;5.77;100.00
12247;BME280;6186;52.022;4.692;2022-12-07T05:33:55;101876.81;;;5.50;100.00
12247;BME280;6186;52.022;4.692;2022-12-07T05:36:21;101922.31;;;5.72;100.00
12247;BME280;6186;52.022;4.692;2022-12-07T05:38:46;101915.31;;;5.68;100.00
12247;BME280;6186;52.022;4.692;2022-12-07T05:41:14;101921.44;;;5.71;100.00
12247;BME280;6186;52.022;4.692;2022-12-07T05:43:58;101931.03;;;5.69;100.00
12247;BME280;6186;52.022;4.692;2022-12-07T05:46:24;101932.78;;;5.72;100.00
12247;BME280;6186;52.022;4.692;2022-12-07T05:48:50;101931.88;;;5.71;100.00
12247;BME280;6186;52.022;4.692;2022-12-07T05:51:15;101929.25;;;5.67;100.00
12247;BME280;6186;52.022;4.692;2022-12-07T05:53:41;101937.16;;;5.74;100.00
12247;BME280;6186;52.022;4.692;2022-12-07T05:56:06;101934.56;;;5.76;100.00
12247;BME280;6186;52.022;4.692;2022-12-07T05:58:31;101919.69;;;5.70;100.00
12247;BME280;6186;52.022;4.692;2022-12-07T06:01:15;101922.31;;;5.69;100.00
12247;BME280;6186;52.022;4.692;2022-12-07T06:03:41;101927.53;;;5.70;100.00
12247;BME280;6186;52.022;4.692;2022-12-07T06:06:06;101917.00;;;5.64;100.00
12247;BME280;6186;52.022;4.692;2022-12-07T06:08:31;101920.50;;;5.63;100.00
12247;BME280;6186;52.022;4.692;2022-12-07T06:10:57;101926.53;;;5.61;100.00
12247;BME280;6186;52.022;4.692;2022-12-07T06:13:41;101919.53;;;5.57;100.00
12247;BME280;6186;52.022;4.692;2022-12-07T06:16:06;101930.84;;;5.54;100.00
12247;BME280;6186;52.022;4.692;2022-12-07T06:18:32;101932.56;;;5.52;100.00
12247;BME280;6186;52.022;4.692;2022-12-07T06:20:57;101923.75;;;5.47;100.00
12247;BME280;6186;52.022;4.692;2022-12-07T06:23:23;101924.56;;;5.43;100.00
12247;BME280;6186;52.022;4.692;2022-12-07T06:25:48;101927.16;;;5.42;100.00
12247;BME280;6186;52.022;4.692;2022-12-07T06:28:13;101926.25;;;5.38;100.00
12247;BME280;6186;52.022;4.692;2022-12-07T06:30:39;101925.34;;;5.35;100.00
12247;BME280;6186;52.022;4.692;2022-12-07T06:33:04;101923.53;;;5.29;100.00
12247;BME280;6186;52.022;4.692;2022-12-07T06:35:29;101929.53;;;5.22;100.00
12247;BME280;6186;52.022;4.692;2022-12-07T06:37:57;101916.31;;;5.10;100.00
12247;BME280;6186;52.022;4.692;2022-12-07T06:40:22;101930.25;;;5.12;100.00
12247;BME280;6186;52.022;4.692;2022-12-07T06:42:47;101910.09;;;5.02;100.00
12247;BME280;6186;52.022;4.692;2022-12-07T06:45:12;101906.47;;;4.93;100.00
12247;BME280;6186;52.022;4.692;2022-12-07T06:47:38;101930.94;;;4.99;100.00
12247;BME280;6186;52.022;4.692;2022-12-07T06:50:04;101937.88;;;4.99;100.00
12247;BME280;6186;52.022;4.692;2022-12-07T06:52:31;101950.91;;;4.99;100.00
12247;BME280;6186;52.022;4.692;2022-12-07T06:54:56;101961.38;;;5.00;100.00
12247;BME280;6186;52.022;4.692;2022-12-07T06:57:21;101968.34;;;5.01;100.00
12247;BME280;6186;52.022;4.692;2022-12-07T06:59:47;101954.47;;;5.04;100.00
12247;BME280;6186;52.022;4.692;2022-12-07T07:02:13;101951.06;;;5.09;100.00
12247;BME280;6186;52.022;4.692;2022-12-07T07:04:38;101952.94;;;5.16;100.00
12247;BME280;6186;52.022;4.692;2022-12-07T07:07:03;101946.91;;;5.20;100.00
12247;BME280;6186;52.022;4.692;2022-12-07T07:09:28;101949.53;;;5.23;100.00
12247;BME280;6186;52.022;4.692;2022-12-07T07:11:54;101936.41;;;5.17;100.00
12247;BME280;6186;52.022;4.692;2022-12-07T07:14:19;101944.34;;;5.26;100.00
12247;BME280;6186;52.022;4.692;2022-12-07T07:16:46;101939.97;;;5.22;100.00
12247;BME280;6186;52.022;4.692;2022-12-07T07:19:11;101932.09;;;5.21;100.00
12247;BME280;6186;52.022;4.692;2022-12-07T07:21:36;101934.69;;;5.21;100.00
12247;BME280;6186;52.022;4.692;2022-12-07T07:24:02;101939.06;;;5.20;100.00
12247;BME280;6186;52.022;4.692;2022-12-07T07:26:27;101939.06;;;5.20;100.00
12247;BME280;6186;52.022;4.692;2022-12-07T07:28:52;101929.44;;;5.16;100.00
12247;BME280;6186;52.022;4.692;2022-12-07T07:31:18;101932.06;;;5.16;100.00
12247;BME280;6186;52.022;4.692;2022-12-07T07:33:45;101939.88;;;5.15;100.00
12247;BME280;6186;52.022;4.692;2022-12-07T07:36:11;101938.91;;;5.11;100.00
12247;BME280;6186;52.022;4.692;2022-12-07T07:38:37;101937.16;;;5.09;100.00
12247;BME280;6186;52.022;4.692;2022-12-07T07:41:02;101934.50;;;5.07;100.00
12247;BME280;6186;52.022;4.692;2022-12-07T07:43:27;101934.50;;;5.07;100.00
12247;BME280;6186;52.022;4.692;2022-12-07T07:45:53;101941.50;;;5.10;100.00
12247;BME280;6186;52.022;4.692;2022-12-07T07:48:18;101928.31;;;4.99;100.00
12247;BME280;6186;52.022;4.692;2022-12-07T07:50:43;101953.75;;;5.14;100.00
12247;BME280;6186;52.022;4.692;2022-12-07T07:53:09;101945.91;;;5.12;100.00
12247;BME280;6186;52.022;4.692;2022-12-07T07:55:34;101948.50;;;5.12;100.00
12247;BME280;6186;52.022;4.692;2022-12-07T07:58:00;101947.72;;;5.16;100.00
12247;BME280;6186;52.022;4.692;2022-12-07T08:00:26;101949.50;;;5.20;100.00
12247;BME280;6186;52.022;4.692;2022-12-07T08:02:51;101949.53;;;5.23;100.00
12247;BME280;6186;52.022;4.692;2022-12-07T08:05:16;101933.78;;;5.17;100.00
12247;BME280;6186;52.022;4.692;2022-12-07T08:07:42;101946.91;;;5.22;100.00
12247;BME280;6186;52.022;4.692;2022-12-07T08:10:10;101949.53;;;5.22;100.00
12247;BME280;6186;52.022;4.692;2022-12-07T08:12:38;101946.91;;;5.20;100.00
12247;BME280;6186;52.022;4.692;2022-12-07T08:15:24;101942.59;;;5.22;100.00
12247;BME280;6186;52.022;4.692;2022-12-07T08:17:50;101943.50;;;5.26;100.00
12247;BME280;6186;52.022;4.692;2022-12-07T08:20:15;101953.94;;;5.26;100.00
12247;BME280;6186;52.022;4.692;2022-12-07T08:22:40;101950.44;;;5.25;100.00
12247;BME280;6186;52.022;4.692;2022-12-07T08:25:06;101946.06;;;5.24;100.00
12247;BME280;6186;52.022;4.692;2022-12-07T08:27:31;101950.44;;;5.24;100.00
12247;BME280;6186;52.022;4.692;2022-12-07T08:29:57;101955.63;;;5.22;100.00
12247;BME280;6186;52.022;4.692;2022-12-07T08:32:22;101963.50;;;5.25;100.00
12247;BME280;6186;52.022;4.692;2022-12-07T08:34:47;101965.31;;;5.31;100.00
12247;BME280;6186;52.022;4.692;2022-12-07T08:37:12;101962.72;;;5.32;100.00
12247;BME280;6186;52.022;4.692;2022-12-07T08:39:38;101970.56;;;5.34;100.00
12247;BME280;6186;52.022;4.692;2022-12-07T08:42:03;101969.72;;;5.36;100.00
12247;BME280;6186;52.022;4.692;2022-12-07T08:44:28;101958.41;;;5.36;100.00
12247;BME280;6186;52.022;4.692;2022-12-07T08:46:59;101961.13;;;5.43;100.00
12247;BME280;6186;52.022;4.692;2022-12-07T08:49:31;101941.03;;;5.36;100.00
12247;BME280;6186;52.022;4.692;2022-12-07T08:51:58;101955.19;;;5.53;100.00
12247;BME280;6186;52.022;4.692;2022-12-07T08:54:23;101950.03;;;5.59;100.00
12247;BME280;6186;52.022;4.692;2022-12-07T08:56:49;101948.41;;;5.67;100.00
12247;BME280;6186;52.022;4.692;2022-12-07T08:59:17;101941.50;;;5.75;100.00
12247;BME280;6186;52.022;4.692;2022-12-07T09:01:44;101945.13;;;5.84;100.00
12247;BME280;6186;52.022;4.692;2022-12-07T09:04:09;101942.59;;;5.90;100.00
12247;BME280;6186;52.022;4.692;2022-12-07T09:06:35;101945.28;;;5.96;100.00
12247;BME280;6186;52.022;4.692;2022-12-07T09:09:01;101939.19;;;5.98;100.00
12247;BME280;6186;52.022;4.692;2022-12-07T09:11:27;101943.66;;;6.07;100.00
12247;BME280;6186;52.022;4.692;2022-12-07T09:13:53;101953.31;;;6.14;100.00
12247;BME280;6186;52.022;4.692;2022-12-07T09:16:18;101935.09;;;6.20;100.00
12247;BME280;6186;52.022;4.692;2022-12-07T09:18:43;101945.69;;;6.35;100.00
12247;BME280;6186;52.022;4.692;2022-12-07T09:21:09;101939.66;;;6.40;100.00
12247;BME280;6186;52.022;4.692;2022-12-07T09:23:34;101959.81;;;6.52;100.00
12247;BME280;6186;52.022;4.692;2022-12-07T09:26:03;101955.47;;;6.57;100.00
12247;BME280;6186;52.022;4.692;2022-12-07T09:28:30;101944.25;;;6.64;100.00
12247;BME280;6186;52.022;4.692;2022-12-07T09:30:55;101953.03;;;6.74;100.00
12247;BME280;6186;52.022;4.692;2022-12-07T09:33:21;101939.97;;;6.77;100.00
12247;BME280;6186;52.022;4.692;2022-12-07T09:35:48;101939.06;;;6.72;100.00
12247;BME280;6186;52.022;4.692;2022-12-07T09:38:14;101937.28;;;6.66;100.00
12247;BME280;6186;52.022;4.692;2022-12-07T09:40:39;101945.13;;;6.66;100.00
12247;BME280;6186;52.022;4.692;2022-12-07T09:43:15;101948.59;;;6.68;100.00
12247;BME280;6186;52.022;4.692;2022-12-07T09:45:44;101941.63;;;6.67;100.00
12247;BME280;6186;52.022;4.692;2022-12-07T09:48:21;101939.00;;;6.65;100.00
12247;BME280;6186;52.022;4.692;2022-12-07T09:50:49;101935.50;;;6.68;100.00
12247;BME280;6186;52.022;4.692;2022-12-07T09:53:24;101945.16;;;6.71;100.00
12247;BME280;6186;52.022;4.692;2022-12-07T09:55:50;101935.56;;;6.71;100.00
12247;BME280;6186;52.022;4.692;2022-12-07T09:58:22;101933.78;;;6.70;100.00
12247;BME280;6186;52.022;4.692;2022-12-07T10:00:51;101935.56;;;6.74;100.00
12247;BME280;6186;52.022;4.692;2022-12-07T10:03:18;101931.28;;;6.82;100.00
12247;BME280;6186;52.022;4.692;2022-12-07T10:05:50;101937.50;;;6.98;100.00
12247;BME280;6186;52.022;4.692;2022-12-07T10:08:16;101932.38;;;7.14;100.00
12247;BME280;6186;52.022;4.692;2022-12-07T10:10:43;101932.47;;;7.26;100.00
12247;BME280;6186;52.022;4.692;2022-12-07T10:13:12;101934.28;;;7.42;100.00
12247;BME280;6186;52.022;4.692;2022-12-07T10:15:57;101932.66;;;7.66;100.00
12247;BME280;6186;52.022;4.692;2022-12-07T10:26:40;101928.31;;;7.78;100.00
12247;BME280;6186;52.022;4.692;2022-12-07T10:29:28;101918.69;;;7.73;100.00
12247;BME280;6186;52.022;4.692;2022-12-07T10:32:00;101923.06;;;7.69;100.00
12247;BME280;6186;52.022;4.692;2022-12-07T10:34:32;101915.22;;;7.78;100.00
12247;BME280;6186;52.022;4.692;2022-12-07T10:37:26;101915.34;;;8.19;100.00
12247;BME280;6186;52.022;4.692;2022-12-07T10:39:56;101893.53;;;8.42;100.00
12247;BME280;6186;52.022;4.692;2022-12-07T10:42:30;101905.75;;;8.89;100.00
12247;BME280;6186;52.022;4.692;2022-12-07T10:48:16;101899.41;;;9.67;100.00
12247;BME280;6186;52.022;4.692;2022-12-07T11:01:42;101887.28;;;9.22;100.00
12247;BME280;6186;52.022;4.692;2022-12-07T11:18:03;101860.78;;;9.79;100.00
12247;BME280;6186;52.022;4.692;2022-12-07T11:23:18;101852.81;;;9.93;100.00
12247;BME280;6186;52.022;4.692;2022-12-07T11:28:23;101848.09;;;10.40;100.00
12247;BME280;6186;52.022;4.692;2022-12-07T11:34:15;101846.09;;;10.66;100.00
12247;BME280;6186;52.022;4.692;2022-12-07T11:36:51;101839.03;;;10.71;100.00
12247;BME280;6186;52.022;4.692;2022-12-07T11:39:28;101839.16;;;10.59;100.00
12247;BME280;6186;52.022;4.692;2022-12-07T11:42:04;101839.38;;;10.35;100.00
12247;BME280;6186;52.022;4.692;2022-12-07T11:47:30;101826.50;;;9.94;100.00
12247;BME280;6186;52.022;4.692;2022-12-07T11:55:31;101814.56;;;9.37;100.00
12247;BME280;6186;52.022;4.692;2022-12-07T11:58:04;101822.50;;;9.22;100.00
12247;BME280;6186;52.022;4.692;2022-12-07T12:00:33;101818.16;;;9.11;100.00
12247;BME280;6186;52.022;4.692;2022-12-07T12:03:10;101818.22;;;9.02;100.00
12247;BME280;6186;52.022;4.692;2022-12-07T12:05:37;101816.47;;;8.92;100.00
12247;BME280;6186;52.022;4.692;2022-12-07T12:08:23;101813.00;;;8.82;100.00
12247;BME280;6186;52.022;4.692;2022-12-07T12:11:00;101813.91;;;8.72;100.00
12247;BME280;6186;52.022;4.692;2022-12-07T12:17:43;101809.59;;;8.47;100.00
12247;BME280;6186;52.022;4.692;2022-12-07T12:19:56;101813.97;;;8.37;100.00
12247;BME280;6186;52.022;4.692;2022-12-07T12:22:37;101805.22;;;8.28;100.00
12247;BME280;6186;52.022;4.692;2022-12-07T12:25:06;101798.19;;;8.16;100.00
12247;BME280;6186;52.022;4.692;2022-12-07T12:27:37;101812.19;;;8.17;100.00
12247;BME280;6186;52.022;4.692;2022-12-07T12:30:24;101802.56;;;8.11;100.00
12247;BME280;6186;52.022;4.692;2022-12-07T12:32:51;101805.19;;;8.04;100.00
12247;BME280;6186;52.022;4.692;2022-12-07T12:38:31;101792.09;;;7.95;100.00
12247;BME280;6186;52.022;4.692;2022-12-07T12:41:01;101796.44;;;7.90;100.00
12247;BME280;6186;52.022;4.692;2022-12-07T12:43:47;101792.06;;;7.90;100.00
12247;BME280;6186;52.022;4.692;2022-12-07T12:48:56;101782.47;;;8.07;100.00
12247;BME280;6186;52.022;4.692;2022-12-07T12:51:41;101780.69;;;8.20;100.00
12247;BME280;6186;52.022;4.692;2022-12-07T12:54:22;101771.13;;;8.40;100.00
12247;BME280;6186;52.022;4.692;2022-12-07T12:56:57;101772.78;;;8.71;100.00
12247;BME280;6186;52.022;4.692;2022-12-07T13:26:27;101746.97;;;9.62;100.00
12247;BME280;6186;52.022;4.692;2022-12-07T13:34:04;101730.66;;;9.04;100.00
12247;BME280;6186;52.022;4.692;2022-12-07T13:36:37;101735.91;;;9.01;100.00
12247;BME280;6186;52.022;4.692;2022-12-07T13:39:24;101731.56;;;9.00;100.00
12247;BME280;6186;52.022;4.692;2022-12-07T13:41:52;101728.06;;;8.98;100.00
12247;BME280;6186;52.022;4.692;2022-12-07T13:44:19;101727.19;;;9.01;100.00
12247;BME280;6186;52.022;4.692;2022-12-07T13:47:03;101731.53;;;9.03;100.00
12247;BME280;6186;52.022;4.692;2022-12-07T13:49:36;101730.63;;;9.07;100.00
12247;BME280;6186;52.022;4.692;2022-12-07T13:52:19;101727.13;;;9.11;100.00
12247;BME280;6186;52.022;4.692;2022-12-07T13:54:55;101721.84;;;9.14;100.00
12247;BME280;6186;52.022;4.692;2022-12-07T13:57:22;101720.91;;;9.29;100.00
12247;BME280;6186;52.022;4.692;2022-12-07T13:59:49;101724.25;;;9.50;100.00
12247;BME280;6186;52.022;4.692;2022-12-07T14:02:30;101721.50;;;9.69;100.00
12247;BME280;6186;52.022;4.692;2022-12-07T14:05:22;101728.53;;;9.68;100.00
12247;BME280;6186;52.022;4.692;2022-12-07T14:08:25;101733.84;;;9.61;100.00
12247;BME280;6186;52.022;4.692;2022-12-07T14:13:37;101712.22;;;9.15;100.00
12247;BME280;6186;52.022;4.692;2022-12-07T14:18:45;101702.75;;;8.82;100.00
12247;BME280;6186;52.022;4.692;2022-12-07T14:21:16;101704.53;;;8.76;100.00
12247;BME280;6186;52.022;4.692;2022-12-07T14:23:43;101704.53;;;8.71;100.00
12247;BME280;6186;52.022;4.692;2022-12-07T14:26:18;101698.44;;;8.66;100.00
12247;BME280;6186;52.022;4.692;2022-12-07T14:28:45;101701.09;;;8.60;100.00
12247;BME280;6186;52.022;4.692;2022-12-07T14:31:13;101694.97;;;8.52;100.00
12247;BME280;6186;52.022;4.692;2022-12-07T14:33:39;101695.00;;;8.46;100.00
12247;BME280;6186;52.022;4.692;2022-12-07T14:36:05;101692.41;;;8.40;100.00
12247;BME280;6186;52.022;4.692;2022-12-07T14:38:31;101691.53;;;8.35;100.00
12247;BME280;6186;52.022;4.692;2022-12-07T14:40:56;101695.94;;;8.28;100.00
12247;BME280;6186;52.022;4.692;2022-12-07T14:43:42;101687.16;;;8.22;100.00
12247;BME280;6186;52.022;4.692;2022-12-07T14:46:09;101688.91;;;8.20;100.00
12247;BME280;6186;52.022;4.692;2022-12-07T14:48:34;101688.91;;;8.18;100.00
12247;BME280;6186;52.022;4.692;2022-12-07T14:50:59;101680.19;;;8.13;100.00
12247;BME280;6186;52.022;4.692;2022-12-07T14:53:30;101681.94;;;8.11;100.00
12247;BME280;6186;52.022;4.692;2022-12-07T14:55:56;101665.38;;;8.02;100.00
12247;BME280;6186;52.022;4.692;2022-12-07T14:58:22;101669.75;;;8.04;100.00
12247;BME280;6186;52.022;4.692;2022-12-07T15:00:47;101668.84;;;8.01;100.00
12247;BME280;6186;52.022;4.692;2022-12-07T15:03:12;101667.97;;;7.96;100.00
12247;BME280;6186;52.022;4.692;2022-12-07T15:05:38;101667.13;;;7.94;100.00
12247;BME280;6186;52.022;4.692;2022-12-07T15:08:04;101663.63;;;7.86;100.00
12247;BME280;6186;52.022;4.692;2022-12-07T15:10:32;101662.75;;;7.84;100.00
12247;BME280;6186;52.022;4.692;2022-12-07T15:12:59;101668.00;;;7.87;100.00
12247;BME280;6186;52.022;4.692;2022-12-07T15:15:48;101666.25;;;7.86;100.00
12247;BME280;6186;52.022;4.692;2022-12-07T15:18:14;101661.00;;;7.84;100.00
12247;BME280;6186;52.022;4.692;2022-12-07T15:20:40;101633.06;;;7.71;100.00